Time;durP1;ratioP1;P1;durP2;ratioP2;P2;SDS_P1;SDS_P2;PMS_P1;PMS_P2;Temp;Humidity;BMP_temperature;BMP_pressure;BME280_temperature;BME280_humidity;BME280_pressure;Samples;Min_cycle;Max_cycle;Signal;HPM_P1;HPM_P2
2022/08/14 00:03:36;;;;;;;4.43;4.03;;;;;;;24.72;44.05;99820.38;10362863;28;20048;-71
2022/08/14 00:08:37;;;;;;;5.00;4.53;;;;;;;24.64;44.53;99807.09;10388278;28;20071;-71
2022/08/14 00:13:47;;;;;;;5.03;4.68;;;;;;;24.63;44.54;99806.25;10376866;28;20083;-73
2022/08/14 00:18:53;;;;;;;4.80;4.50;;;;;;;24.56;45.03;99788.31;10388812;28;20068;-74
2022/08/14 00:24:15;;;;;;;5.38;4.88;;;;;;;24.50;45.52;99784.59;10390112;28;20420;-73
2022/08/14 00:29:30;;;;;;;5.20;4.80;;;;;;;24.49;45.63;99788.41;10391482;28;20052;-74
2022/08/14 00:34:40;;;;;;;4.72;4.40;;;;;;;24.42;45.99;99772.13;10386493;28;20696;-73
2022/08/14 00:39:49;;;;;;;5.90;5.20;;;;;;;24.42;45.90;99776.75;10376935;28;20041;-74
2022/08/14 00:44:51;;;;;;;4.90;4.57;;;;;;;24.38;46.49;99770.09;10388552;28;20824;-74
2022/08/14 00:49:55;;;;;;;5.38;4.88;;;;;;;24.36;46.48;99762.16;10387709;28;20803;-74
2022/08/14 00:54:57;;;;;;;5.50;5.00;;;;;;;24.36;46.77;99762.16;10388337;28;20082;-73
2022/08/14 01:00:07;;;;;;;5.85;5.03;;;;;;;24.34;46.91;99751.50;10398871;28;20059;-73
2022/08/14 01:05:29;;;;;;;5.07;4.60;;;;;;;24.28;47.51;99752.41;10386019;28;20052;-74
2022/08/14 01:10:52;;;;;;;6.78;5.22;;;;;;;24.20;47.58;99739.13;10392912;28;20059;-73
2022/08/14 01:15:55;;;;;;;;;;;;;;;24.19;47.71;99745.63;10389867;28;20903;-73
2022/08/14 01:21:10;;;;;;;5.35;4.85;;;;;;;24.16;47.75;99749.63;10389726;28;20811;-74
2022/08/14 01:26:15;;;;;;;6.88;5.85;;;;;;;24.07;48.25;99742.81;10381842;28;20063;-73
2022/08/14 01:31:40;;;;;;;7.00;5.85;;;;;;;23.99;48.62;99730.34;10380396;28;20046;-73
2022/08/14 01:36:42;;;;;;;5.57;5.07;;;;;;;23.93;48.72;99725.81;10369366;28;20784;-73
2022/08/14 01:41:48;;;;;;;6.22;5.63;;;;;;;23.96;48.90;99722.66;10389190;28;20059;-72
2022/08/14 01:46:53;;;;;;;5.90;5.40;;;;;;;23.97;48.94;99723.47;10384713;28;20856;-72
2022/08/14 01:52:02;;;;;;;5.30;4.80;;;;;;;23.93;48.45;99709.50;10374830;28;20115;-73
2022/08/14 01:57:10;;;;;;;5.80;5.38;;;;;;;23.87;49.02;99706.84;10395719;28;20100;-74
2022/08/14 02:02:14;;;;;;;5.72;5.15;;;;;;;23.83;49.39;99709.16;10391241;28;20045;-74
2022/08/14 02:07:20;;;;;;;6.00;5.50;;;;;;;23.70;49.34;99703.84;10376032;28;20142;-74
2022/08/14 02:12:45;;;;;;;5.90;5.40;;;;;;;23.55;49.76;99696.03;10380701;28;20052;-74
2022/08/14 02:17:54;;;;;;;5.88;5.38;;;;;;;23.55;50.00;99685.16;10385427;28;20060;-74
2022/08/14 02:22:56;;;;;;;6.18;5.68;;;;;;;23.46;50.46;99668.31;10392352;28;20056;-74
2022/08/14 02:28:01;;;;;;;5.68;5.13;;;;;;;23.50;50.41;99672.25;10377448;28;20033;-74
2022/08/14 02:33:22;;;;;;;6.35;5.75;;;;;;;23.47;50.33;99657.22;10394039;28;20059;-74
2022/08/14 02:38:23;;;;;;;6.85;5.72;;;;;;;23.45;50.50;99648.47;10395352;28;20134;-73
2022/08/14 02:43:35;;;;;;;5.85;5.35;;;;;;;23.45;50.43;99644.94;10383555;28;20119;-73
2022/08/14 02:48:48;;;;;;;6.10;5.50;;;;;;;23.36;51.73;99621.81;10380957;28;20180;-72
2022/08/14 02:54:08;;;;;;;6.80;5.97;;;;;;;23.27;51.46;99613.97;10397536;28;20045;-72
2022/08/14 02:59:15;;;;;;;7.03;6.53;;;;;;;23.15;51.86;99610.31;10395970;28;20128;-73
2022/08/14 03:04:17;;;;;;;6.63;6.13;;;;;;;23.12;52.32;99616.19;10382909;28;20527;-75
2022/08/14 03:09:21;;;;;;;;;;;;;;;23.05;52.60;99626.25;10392739;28;20471;-73
2022/08/14 03:14:24;;;;;;;7.35;6.85;;;;;;;22.99;52.76;99621.69;10389825;28;20440;-72
2022/08/14 03:19:28;;;;;;;7.80;6.25;;;;;;;22.90;53.17;99624.66;10389046;28;20384;-73
2022/08/14 03:24:31;;;;;;;7.13;6.63;;;;;;;22.95;53.19;99630.28;10368836;28;20537;-72
2022/08/14 03:29:34;;;;;;;7.30;6.70;;;;;;;23.02;53.13;99618.53;10391282;28;20053;-72
2022/08/14 03:34:42;;;;;;;7.95;7.28;;;;;;;23.01;53.51;99620.41;10376630;28;20053;-73
2022/08/14 03:39:56;;;;;;;7.13;6.60;;;;;;;23.03;52.90;99631.03;10387105;28;20661;-72
2022/08/14 03:44:57;;;;;;;6.68;6.18;;;;;;;22.98;53.30;99625.44;10386120;28;20049;-73
2022/08/14 03:50:19;;;;;;;6.95;6.43;;;;;;;22.81;53.99;99633.31;10384908;28;20056;-72
2022/08/14 03:55:31;;;;;;;6.65;6.15;;;;;;;22.82;53.38;99638.50;10395614;28;20048;-74
2022/08/14 04:00:35;;;;;;;7.75;7.15;;;;;;;22.74;53.09;99626.03;10398499;28;20056;-72
2022/08/14 04:05:45;;;;;;;6.93;6.32;;;;;;;22.66;53.30;99612.72;10388123;28;20072;-72
2022/08/14 04:10:49;;;;;;;8.38;7.65;;;;;;;22.68;53.59;99621.47;10401554;28;20048;-72
2022/08/14 04:15:53;;;;;;;7.53;6.93;;;;;;;22.70;54.45;99618.53;10391642;28;20057;-74
2022/08/14 04:21:03;;;;;;;8.85;8.13;;;;;;;22.68;54.78;99607.06;10398200;28;20668;-73
2022/08/14 04:26:07;;;;;;;7.97;7.38;;;;;;;22.62;55.14;99599.81;10399154;28;20052;-73
2022/08/14 04:31:17;;;;;;;8.05;7.45;;;;;;;22.60;55.94;99597.31;10396887;28;20065;-73
2022/08/14 04:36:25;;;;;;;8.25;7.50;;;;;;;22.53;55.77;99594.66;10382669;28;20129;-73
2022/08/14 04:52:14;;;;;;;7.85;7.20;;;;;;;22.52;56.95;99584.00;10398786;28;20737;-73
2022/08/14 04:57:25;;;;;;;7.63;6.93;;;;;;;22.58;57.55;99589.41;10399251;28;20188;-73
2022/08/14 05:02:29;;;;;;;7.65;7.13;;;;;;;22.59;56.40;99588.38;10381250;28;20119;-72
2022/08/14 05:07:34;;;;;;;8.65;7.70;;;;;;;22.66;56.73;99598.34;10393413;28;20045;-73
2022/08/14 05:12:56;;;;;;;8.13;7.53;;;;;;;22.63;56.63;99601.50;10390804;28;20068;-73
2022/08/14 05:18:20;;;;;;;7.60;7.07;;;;;;;22.57;57.10;99604.00;10392678;28;20045;-73
2022/08/14 05:23:41;;;;;;;8.25;7.57;;;;;;;22.56;57.64;99596.09;10377468;28;20530;-73
2022/08/14 05:28:46;;;;;;;8.15;7.55;;;;;;;22.60;56.59;99600.03;10392952;28;20048;-72
2022/08/14 05:33:48;;;;;;;8.27;7.53;;;;;;;22.65;57.94;99610.22;10387497;28;20052;-74
2022/08/14 05:38:57;;;;;;;7.75;7.15;;;;;;;22.75;57.03;99610.59;10389986;28;20474;-74
2022/08/14 05:43:59;;;;;;;8.02;7.32;;;;;;;22.83;57.70;99613.03;10359222;28;20060;-78
2022/08/14 05:49:00;;;;;;;8.13;7.43;;;;;;;22.89;58.22;99595.84;10377624;28;20052;-77
2022/08/14 05:54:04;;;;;;;9.73;7.45;;;;;;;23.02;57.58;99594.94;10403537;28;20056;-75
2022/08/14 05:59:14;;;;;;;8.38;7.55;;;;;;;23.12;56.87;99606.16;10404805;28;20044;-76
2022/08/14 06:04:17;;;;;;;8.55;7.82;;;;;;;23.24;57.45;99600.84;10387353;28;20105;-76
2022/08/14 06:09:19;;;;;;;8.05;7.35;;;;;;;23.29;56.19;99584.69;10397982;28;20052;-78
2022/08/14 06:14:20;;;;;;;8.73;8.02;;;;;;;23.44;56.09;99595.22;10418646;28;20159;-76
2022/08/14 06:19:24;;;;;;;7.55;6.85;;;;;;;23.55;55.86;99590.91;10396370;28;20064;-76
2022/08/14 06:24:30;;;;;;;8.05;7.30;;;;;;;23.53;55.24;99579.47;10404965;28;20056;-76
2022/08/14 06:29:37;;;;;;;8.68;7.97;;;;;;;23.64;55.99;99591.47;10416088;28;20051;-76
2022/08/14 06:34:38;;;;;;;8.25;7.65;;;;;;;23.79;55.14;99588.38;10400130;28;20156;-74
2022/08/14 06:39:59;;;;;;;8.50;7.80;;;;;;;23.94;56.56;99575.25;10413105;28;20044;-76
2022/08/14 06:45:06;;;;;;;7.63;7.03;;;;;;;24.10;55.13;99583.88;10397286;28;20144;-77
2022/08/14 06:50:11;;;;;;;7.95;7.35;;;;;;;24.31;53.84;99586.06;10402526;28;20588;-76
2022/08/14 06:55:16;;;;;;;8.38;7.68;;;;;;;24.43;54.21;99582.59;10401071;28;20063;-77
2022/08/14 07:00:27;;;;;;;7.93;7.33;;;;;;;24.56;53.13;99574.25;10398319;28;20481;-77
2022/08/14 07:05:54;;;;;;;8.00;7.30;;;;;;;24.89;52.69;99572.91;10394266;28;20052;-77
2022/08/14 07:11:02;;;;;;;7.43;6.78;;;;;;;24.87;51.83;99562.25;10381583;28;20045;-77
2022/08/14 07:16:04;;;;;;;7.90;7.30;;;;;;;25.00;52.19;99553.03;10403626;28;20139;-76
2022/08/14 07:21:08;;;;;;;7.93;7.33;;;;;;;25.17;51.72;99538.72;10403264;28;21013;-79
2022/08/14 07:26:12;;;;;;;8.65;7.85;;;;;;;25.28;51.74;99524.28;10401423;28;20288;-77
2022/08/14 07:31:13;;;;;;;7.30;6.60;;;;;;;25.57;50.67;99518.94;10382634;28;20492;-77
2022/08/14 07:36:19;;;;;;;8.68;6.85;;;;;;;25.57;50.06;99510.75;10401702;28;20052;-76
2022/08/14 07:41:30;;;;;;;8.13;7.53;;;;;;;25.71;49.66;99503.97;10398179;28;20048;-73
2022/08/14 07:46:36;;;;;;;7.38;6.78;;;;;;;25.79;49.79;99510.91;10411369;28;20052;-79
2022/08/14 07:51:40;;;;;;;7.40;6.80;;;;;;;25.91;49.19;99513.63;10426492;28;20065;-75
2022/08/14 07:56:41;;;;;;;7.50;6.90;;;;;;;25.92;48.60;99507.91;10371237;28;20052;-74
2022/08/14 08:01:49;;;;;;;7.93;7.32;;;;;;;26.08;48.87;99495.44;10391532;28;20178;-75
2022/08/14 08:06:53;;;;;;;7.63;7.03;;;;;;;26.38;48.24;99516.16;10402967;28;20057;-76
2022/08/14 08:11:55;;;;;;;7.95;7.35;;;;;;;26.42;47.65;99527.41;10400658;28;20419;-76
2022/08/14 08:16:58;;;;;;;;;;;;;;;26.64;47.09;99530.25;10381356;28;20045;-75
2022/08/14 08:22:02;;;;;;;7.18;6.63;;;;;;;26.66;46.91;99521.81;10398307;28;19925;-75
2022/08/14 08:27:18;;;;;;;7.68;7.00;;;;;;;26.91;46.21;99519.53;10394578;28;20810;-75
2022/08/14 08:32:22;;;;;;;7.55;6.95;;;;;;;26.99;46.40;99516.38;10373795;28;20075;-72
2022/08/14 08:37:33;;;;;;;6.97;6.47;;;;;;;27.14;45.75;99507.59;10388581;28;20680;-72
2022/08/14 08:42:43;;;;;;;7.55;6.95;;;;;;;27.46;45.24;99515.16;10394617;28;20049;-75
2022/08/14 08:47:46;;;;;;;6.25;5.78;;;;;;;27.64;43.79;99515.94;10387799;28;20593;-74
2022/08/14 08:52:52;;;;;;;6.38;5.97;;;;;;;28.05;43.79;99505.50;10379213;28;20064;-76
2022/08/14 08:58:00;;;;;;;6.85;6.35;;;;;;;28.48;41.94;99501.00;10394635;28;20678;-73
2022/08/14 09:03:12;;;;;;;8.00;7.13;;;;;;;28.50;41.16;99476.09;10399733;28;20486;-74
2022/08/14 09:08:16;;;;;;;6.25;5.72;;;;;;;28.87;40.77;99489.81;10399917;28;20044;-74
2022/08/14 09:13:33;;;;;;;16.60;14.95;;;;;;;29.25;40.15;99482.41;10389623;28;20053;-75
2022/08/14 09:18:34;;;;;;;6.87;6.27;;;;;;;29.52;40.19;99478.69;10387015;28;20485;-75
2022/08/14 09:23:36;;;;;;;9.25;8.35;;;;;;;30.05;38.52;99492.31;10388857;28;20053;-76
2022/08/14 09:28:58;;;;;;;5.67;5.33;;;;;;;29.93;38.95;99478.03;10404012;28;20523;-74
2022/08/14 09:34:17;;;;;;;6.30;5.80;;;;;;;30.32;37.12;99464.63;10403294;28;20367;-74
2022/08/14 09:39:36;;;;;;;5.93;5.50;;;;;;;30.77;37.19;99466.88;10409136;28;20059;-74
2022/08/14 09:44:53;;;;;;;6.68;6.15;;;;;;;31.21;36.21;99449.75;10412699;28;20124;-75
2022/08/14 09:49:54;;;;;;;5.90;5.40;;;;;;;31.58;35.09;99450.47;10422317;28;20051;-76
2022/08/14 09:54:56;;;;;;;5.53;5.03;;;;;;;31.93;33.64;99441.16;10421734;28;20048;-76
2022/08/14 10:00:10;;;;;;;5.53;5.18;;;;;;;32.38;32.80;99435.63;10387351;28;20110;-76
2022/08/14 10:05:34;;;;;;;5.65;5.10;;;;;;;32.38;32.20;99425.47;10365139;28;20770;-74
2022/08/14 10:10:40;;;;;;;5.20;4.90;;;;;;;32.42;31.71;99409.19;10352611;28;20053;-79
2022/08/14 10:15:45;;;;;;;5.00;4.70;;;;;;;32.59;31.99;99404.06;10405610;28;20056;-76
2022/08/14 10:20:59;;;;;;;4.95;4.55;;;;;;;32.85;32.17;99406.59;10411197;28;20055;-74
2022/08/14 10:26:06;;;;;;;4.47;4.10;;;;;;;33.72;29.03;99401.91;10403139;28;20053;-77
2022/08/14 10:31:23;;;;;;;4.50;4.10;;;;;;;36.09;26.47;99391.88;10370938;28;20507;-76
2022/08/14 10:36:32;;;;;;;4.20;3.85;;;;;;;39.86;21.33;99384.25;10382696;28;20102;-77
2022/08/14 10:41:42;;;;;;;3.75;3.45;;;;;;;37.48;24.48;99377.03;10358966;28;20049;-77
2022/08/14 10:47:06;;;;;;;3.60;3.30;;;;;;;35.50;25.86;99378.03;10379349;28;20679;-77
2022/08/14 10:52:33;;;;;;;7.30;6.70;;;;;;;35.88;25.12;99370.25;10384217;28;20275;-78
2022/08/14 10:57:57;;;;;;;3.70;3.38;;;;;;;36.66;23.01;99359.97;10402587;28;20046;-80
2022/08/14 11:03:04;;;;;;;5.65;4.70;;;;;;;37.47;23.60;99361.53;10397936;28;20064;-79
2022/08/14 11:08:06;;;;;;;3.80;3.50;;;;;;;38.35;22.20;99354.78;10383910;28;20158;-78
2022/08/14 11:13:22;;;;;;;5.05;3.60;;;;;;;38.79;22.09;99351.84;10389463;28;20057;-80
2022/08/14 11:18:26;;;;;;;3.20;2.90;;;;;;;38.80;21.08;99338.78;10374232;28;20647;-80
2022/08/14 11:23:38;;;;;;;2.33;2.08;;;;;;;38.93;19.53;99336.91;10392364;28;20045;-79
2022/08/14 11:28:48;;;;;;;3.72;2.80;;;;;;;41.74;18.05;99333.50;10393217;28;20049;-78
2022/08/14 11:33:56;;;;;;;1.80;1.70;;;;;;;42.14;16.31;99338.16;10375606;28;20053;-81
2022/08/14 11:38:58;;;;;;;1.90;1.80;;;;;;;39.65;17.95;99312.69;10379484;28;20056;-78
2022/08/14 11:44:00;;;;;;;2.08;1.85;;;;;;;38.95;18.97;99293.69;10389929;28;20052;-81
2022/08/14 11:49:05;;;;;;;4.30;1.70;;;;;;;38.71;18.73;99286.81;10392241;28;20061;-79
2022/08/14 11:54:07;;;;;;;3.70;2.40;;;;;;;38.91;19.46;99278.81;10398483;28;20462;-80
2022/08/14 11:59:16;;;;;;;1.88;1.75;;;;;;;38.47;19.23;99261.56;10429355;28;20056;-79
2022/08/14 12:04:20;;;;;;;4.57;4.18;;;;;;;38.36;18.04;99256.38;10404627;28;20042;-82
2022/08/14 12:09:36;;;;;;;2.55;1.92;;;;;;;38.34;18.21;99258.69;10436738;28;20049;-80
2022/08/14 12:14:56;;;;;;;1.55;1.45;;;;;;;37.98;19.50;99245.22;10398770;28;20053;-80
2022/08/14 12:20:05;;;;;;;2.03;1.90;;;;;;;37.65;18.63;99263.25;10395645;28;20131;-81
2022/08/14 12:25:20;;;;;;;2.10;1.85;;;;;;;36.89;19.57;99247.88;10400275;28;20053;-79
2022/08/14 12:30:35;;;;;;;2.78;1.88;;;;;;;36.86;19.75;99251.28;10380966;28;20124;-81
2022/08/14 12:35:43;;;;;;;2.45;1.80;;;;;;;36.71;19.83;99247.00;10401397;28;20100;-79
2022/08/14 12:40:50;;;;;;;1.85;1.65;;;;;;;36.57;20.30;99233.28;10398141;28;20120;-79
2022/08/14 12:45:53;;;;;;;2.17;1.98;;;;;;;36.36;19.26;99233.06;10378419;28;20157;-81
2022/08/14 12:50:56;;;;;;;2.28;2.05;;;;;;;36.13;20.19;99220.38;10408261;28;20113;-80
2022/08/14 12:55:59;;;;;;;2.22;2.08;;;;;;;35.91;20.75;99194.38;10393504;28;20048;-78
2022/08/14 13:01:26;;;;;;;3.85;2.53;;;;;;;36.02;20.37;99197.69;10392912;28;20059;-78
2022/08/14 13:06:28;;;;;;;2.60;2.40;;;;;;;35.90;21.61;99193.56;10403792;28;20059;-80
2022/08/14 13:11:39;;;;;;;2.30;2.10;;;;;;;35.70;20.53;99185.78;10398834;28;20089;-82
2022/08/14 13:16:42;;;;;;;2.55;2.33;;;;;;;35.71;21.49;99159.75;10404050;28;20048;-78
2022/08/14 13:21:52;;;;;;;4.75;3.33;;;;;;;35.91;21.22;99159.22;10425066;28;20126;-83
2022/08/14 13:27:11;;;;;;;2.60;2.40;;;;;;;35.68;20.73;99133.50;10434997;28;20115;-80
2022/08/14 13:32:12;;;;;;;3.03;2.70;;;;;;;35.48;21.38;99136.84;10400691;28;20852;-80
2022/08/14 13:37:17;;;;;;;8.25;7.45;;;;;;;35.52;21.24;99133.13;10397352;28;20049;-79
2022/08/14 13:42:20;;;;;;;3.83;3.33;;;;;;;34.99;21.91;99128.34;10398332;28;20057;-81
2022/08/14 13:47:28;;;;;;;3.05;2.72;;;;;;;34.98;21.56;99115.66;10403590;28;20050;-78
2022/08/14 13:52:54;;;;;;;5.90;5.35;;;;;;;34.99;21.77;99117.28;10415940;28;20044;-77
2022/08/14 13:58:00;;;;;;;3.72;3.15;;;;;;;35.16;22.17;99103.59;10406173;28;20064;-77
2022/08/14 14:03:06;;;;;;;2.95;2.70;;;;;;;35.22;22.34;99093.19;10395247;28;20072;-79
2022/08/14 14:08:10;;;;;;;3.35;3.05;;;;;;;35.19;22.45;99089.13;10379603;28;20111;-77
2022/08/14 14:13:31;;;;;;;3.42;3.13;;;;;;;34.58;23.14;99090.59;10390271;28;20060;-75
2022/08/14 14:18:34;;;;;;;4.53;3.40;;;;;;;34.00;23.92;99087.41;10396273;28;20922;-75
2022/08/14 14:23:43;;;;;;;10.68;9.68;;;;;;;34.31;23.29;99086.78;10392650;28;20062;-76
2022/08/14 14:28:50;;;;;;;4.13;3.20;;;;;;;34.21;23.38;99087.78;10387346;28;20412;-76
2022/08/14 14:33:56;;;;;;;3.55;3.25;;;;;;;34.10;23.89;99061.53;10379776;28;20060;-77
2022/08/14 14:39:06;;;;;;;4.10;3.80;;;;;;;34.01;23.86;99072.47;10363039;28;20056;-78
2022/08/14 14:44:11;;;;;;;3.72;3.40;;;;;;;33.86;23.98;99059.00;10383559;28;20259;-78
2022/08/14 14:49:21;;;;;;;3.35;3.05;;;;;;;33.58;23.82;99058.97;10394148;28;20044;-78
2022/08/14 14:54:45;;;;;;;4.95;3.42;;;;;;;33.33;24.58;99058.34;10379475;28;20506;-78
2022/08/14 14:59:47;;;;;;;3.55;3.35;;;;;;;33.11;24.69;99051.50;10380833;28;20063;-77
2022/08/14 15:04:50;;;;;;;4.03;3.72;;;;;;;33.15;24.93;99050.91;10393800;28;20045;-77
2022/08/14 15:09:52;;;;;;;3.92;3.63;;;;;;;33.11;24.57;99043.22;10395254;28;20071;-78
2022/08/14 15:14:54;;;;;;;6.43;5.82;;;;;;;33.37;25.33;99047.50;10383278;28;20503;-77
2022/08/14 15:20:12;;;;;;;4.90;4.60;;;;;;;33.39;24.79;99035.06;10378843;28;20049;-78
2022/08/14 15:25:31;;;;;;;5.03;3.95;;;;;;;33.35;24.95;99033.22;10397454;28;20049;-76
2022/08/14 15:30:32;;;;;;;4.93;3.63;;;;;;;33.18;24.46;99029.06;10406689;28;20049;-76
2022/08/14 15:35:34;;;;;;;4.30;4.00;;;;;;;33.10;25.35;99038.03;10405009;28;20159;-77
2022/08/14 15:40:45;;;;;;;5.77;3.77;;;;;;;32.99;25.24;99018.09;10398711;28;20067;-78
2022/08/14 15:45:56;;;;;;;;;;;;;;;32.99;25.15;99020.84;10406434;28;20296;-79
2022/08/14 15:50:58;;;;;;;5.80;5.10;;;;;;;32.89;25.53;99015.53;10406160;28;20344;-78
2022/08/14 15:56:00;;;;;;;;;;;;;;;32.93;25.16;99013.81;10389592;28;20055;-78
2022/08/14 16:01:22;;;;;;;4.60;4.20;;;;;;;32.82;25.13;99007.66;10420745;28;20491;-77
2022/08/14 16:06:44;;;;;;;11.40;10.30;;;;;;;32.80;25.10;99006.31;10396418;28;20049;-76
2022/08/14 16:11:55;;;;;;;;;;;;;;;32.59;25.12;99001.09;10407054;28;20052;-76
2022/08/14 16:16:57;;;;;;;21.00;18.90;;;;;;;32.42;25.92;99002.47;10408365;28;19928;-77
2022/08/14 16:22:08;;;;;;;12.90;11.88;;;;;;;32.37;25.96;98997.03;10390856;28;20076;-77
2022/08/14 16:27:31;;;;;;;4.50;4.10;;;;;;;32.35;26.04;99001.22;10418033;28;20056;-77
2022/08/14 16:32:41;;;;;;;4.50;4.10;;;;;;;32.29;26.04;98991.38;10414969;28;20064;-78
2022/08/14 16:37:57;;;;;;;11.32;10.15;;;;;;;32.15;26.07;98991.31;10412722;28;20064;-77
2022/08/14 16:43:00;;;;;;;5.55;5.15;;;;;;;32.10;26.06;98977.59;10403974;28;20052;-78
2022/08/14 16:48:13;;;;;;;3.28;3.03;;;;;;;31.93;25.95;98978.91;10413473;28;20068;-77
2022/08/14 16:53:35;;;;;;;17.48;15.98;;;;;;;31.86;26.58;98973.00;10395010;28;20531;-76
2022/08/14 16:58:37;;;;;;;7.93;6.95;;;;;;;31.77;26.55;98966.50;10410685;28;20059;-78
2022/08/14 17:04:02;;;;;;;12.18;11.18;;;;;;;31.70;26.86;98962.16;10384566;28;20163;-77
2022/08/14 17:09:07;;;;;;;7.25;6.57;;;;;;;31.61;27.40;98961.19;10412763;28;20060;-75
2022/08/14 17:14:12;;;;;;;5.53;4.50;;;;;;;31.55;27.11;98951.38;10416725;28;20064;-78
2022/08/14 17:19:15;;;;;;;11.90;11.00;;;;;;;31.47;27.21;98958.31;10403606;28;20129;-75
2022/08/14 17:24:20;;;;;;;10.77;9.88;;;;;;;31.41;28.02;98950.41;10388495;28;20049;-76
2022/08/14 17:29:41;;;;;;;7.45;6.75;;;;;;;31.31;27.79;98960.41;10391330;28;20053;-76
2022/08/14 17:34:57;;;;;;;8.25;6.35;;;;;;;31.18;28.16;98947.38;10385695;28;20050;-77
2022/08/14 17:40:18;;;;;;;3.75;3.45;;;;;;;31.08;27.70;98947.50;10400656;28;20045;-76
2022/08/14 17:45:44;;;;;;;3.40;3.20;;;;;;;30.93;28.06;98934.72;10387655;28;20056;-75
2022/08/14 17:50:48;;;;;;;4.60;4.20;;;;;;;30.85;28.03;98945.22;10386705;28;20056;-77
2022/08/14 17:56:02;;;;;;;6.78;5.50;;;;;;;30.78;28.31;98949.41;10408021;28;20241;-76
2022/08/14 18:01:04;;;;;;;6.18;5.57;;;;;;;30.70;28.98;98958.25;10392885;28;20812;-77
2022/08/14 18:06:08;;;;;;;6.97;6.32;;;;;;;30.59;29.12;98952.84;10401573;28;20053;-76
2022/08/14 18:11:30;;;;;;;6.25;5.75;;;;;;;30.49;29.08;98953.78;10400122;28;20055;-76
2022/08/14 18:16:47;;;;;;;4.20;3.80;;;;;;;30.37;28.89;98947.81;10407327;28;20055;-77
2022/08/14 18:21:49;;;;;;;6.70;6.10;;;;;;;30.30;29.56;98950.88;10386979;28;20613;-77
2022/08/14 18:27:07;;;;;;;9.20;8.30;;;;;;;30.18;29.48;98953.16;10386838;28;20044;-75
2022/08/14 18:32:31;;;;;;;8.27;6.90;;;;;;;30.08;29.86;98950.47;10410343;28;20057;-74
2022/08/14 18:37:35;;;;;;;7.20;6.60;;;;;;;29.95;30.09;98946.44;10377509;28;20079;-76
2022/08/14 18:42:37;;;;;;;;;;;;;;;29.90;30.32;98952.75;10388477;28;20854;-75
2022/08/14 18:47:38;;;;;;;6.07;5.57;;;;;;;29.77;30.34;98948.72;10381626;28;20331;-75
2022/08/14 18:53:08;;;;;;;5.38;4.88;;;;;;;29.68;30.98;98955.06;10379489;28;20243;-74
2022/08/14 18:58:11;;;;;;;5.95;5.47;;;;;;;29.60;31.63;98951.78;10388681;28;20309;-75
2022/08/14 19:03:33;;;;;;;6.32;5.82;;;;;;;29.54;31.67;98961.13;10391257;28;20805;-76
2022/08/14 19:08:47;;;;;;;7.38;6.05;;;;;;;29.47;32.12;98963.38;10392225;28;20196;-75
2022/08/14 19:13:49;;;;;;;;;;;;;;;29.40;32.66;98968.34;10383696;28;20725;-74
2022/08/14 19:18:53;;;;;;;5.80;5.40;;;;;;;29.30;32.55;98963.69;10395213;28;19936;-75
2022/08/14 19:24:33;;;;;;;7.07;6.40;;;;;;;29.20;32.75;98961.78;10396469;28;20064;-76
2022/08/14 19:29:34;;;;;;;6.47;5.88;;;;;;;29.13;32.94;98966.72;10367749;28;20067;-74
2022/08/14 19:34:42;;;;;;;6.57;5.97;;;;;;;29.05;33.58;98972.75;10399851;28;20053;-74
2022/08/14 19:39:55;;;;;;;6.50;5.85;;;;;;;28.96;33.70;98960.72;10396786;28;20062;-73
2022/08/14 19:44:56;;;;;;;6.15;5.65;;;;;;;28.89;33.86;98964.56;10398693;28;20083;-76
2022/08/14 19:49:59;;;;;;;6.13;5.63;;;;;;;28.76;34.70;98967.06;10380600;28;20060;-73
2022/08/14 19:55:20;;;;;;;8.83;7.93;;;;;;;28.65;34.39;98971.72;10386467;28;20164;-76
2022/08/14 20:00:35;;;;;;;7.63;6.78;;;;;;;28.57;34.62;98982.09;10370861;28;20828;-74
2022/08/14 20:06:00;;;;;;;7.03;6.43;;;;;;;28.54;34.99;98981.81;10393519;28;20080;-72
2022/08/14 20:11:07;;;;;;;6.78;6.07;;;;;;;28.47;34.62;98982.06;10389469;28;20051;-76
2022/08/14 20:16:30;;;;;;;6.75;6.15;;;;;;;28.42;34.80;98978.50;10390952;28;20705;-74
2022/08/14 20:21:33;;;;;;;9.00;8.13;;;;;;;28.38;34.71;98981.78;10393035;28;20076;-75
2022/08/14 20:26:41;;;;;;;8.80;7.90;;;;;;;28.33;34.82;98975.47;10394204;28;20058;-75
2022/08/14 20:31:47;;;;;;;9.27;7.23;;;;;;;28.24;35.46;98971.66;10392690;28;20113;-75
2022/08/14 20:37:10;;;;;;;8.65;7.78;;;;;;;28.17;35.54;98967.25;10392448;28;20048;-74
2022/08/14 20:47:57;;;;;;;6.90;6.38;;;;;;;28.01;35.96;98969.16;10416678;28;20534;-74
2022/08/14 20:53:00;;;;;;;8.32;7.53;;;;;;;27.97;36.15;98967.22;10425688;28;20048;-74
2022/08/14 20:58:06;;;;;;;27.02;24.73;;;;;;;27.82;36.21;98965.25;10405838;28;20139;-75
2022/08/14 21:03:49;;;;;;;8.48;6.82;;;;;;;27.70;36.94;98962.75;10448385;28;20049;-77
2022/08/14 21:09:04;;;;;;;11.32;10.32;;;;;;;27.57;36.94;98958.59;10459969;28;20104;-78
2022/08/14 21:14:08;;;;;;;5.78;4.68;;;;;;;27.37;31.42;98956.59;10439340;28;20095;-75
2022/08/14 21:19:28;;;;;;;6.95;6.35;;;;;;;27.25;35.45;98945.00;10454241;28;20109;-76
2022/08/14 21:24:32;;;;;;;6.40;5.80;;;;;;;27.25;35.38;98961.41;10436667;28;20048;-75
2022/08/14 21:29:49;;;;;;;6.53;6.03;;;;;;;27.19;35.89;98957.00;10445921;28;20120;-75
2022/08/14 21:34:56;;;;;;;6.45;5.85;;;;;;;27.13;36.27;98947.97;10441710;28;20039;-75
2022/08/14 21:39:59;;;;;;;6.10;5.60;;;;;;;27.15;36.20;98946.59;10456474;28;20063;-74
2022/08/14 21:45:00;;;;;;;5.78;5.28;;;;;;;27.17;36.27;98938.97;10463848;28;20053;-75
2022/08/14 21:50:04;;;;;;;5.18;4.43;;;;;;;27.22;36.27;98948.28;10442135;28;20045;-74
2022/08/14 21:55:26;;;;;;;6.60;4.43;;;;;;;27.23;36.18;98947.19;10450122;28;20049;-76
2022/08/14 22:00:34;;;;;;;4.03;3.72;;;;;;;27.21;35.83;98949.38;10443663;28;20170;-75
2022/08/14 22:05:44;;;;;;;4.82;4.10;;;;;;;27.12;36.58;98944.41;10424209;28;20115;-76
2022/08/14 22:10:48;;;;;;;3.97;3.58;;;;;;;27.06;36.34;98937.28;10440974;28;20040;-78
2022/08/14 22:15:53;;;;;;;5.95;3.58;;;;;;;27.03;36.88;98948.72;10439566;28;20396;-76
2022/08/14 22:21:01;;;;;;;4.63;4.10;;;;;;;26.92;37.22;98971.59;10457955;28;20032;-74
2022/08/14 22:26:09;;;;;;;4.50;4.13;;;;;;;26.83;38.09;98970.41;10409283;28;20088;-74
2022/08/14 22:31:22;;;;;;;4.65;4.25;;;;;;;26.78;37.93;98968.47;10400229;28;20528;-75
2022/08/14 22:41:48;;;;;;;4.68;4.28;;;;;;;26.62;39.05;98956.59;10392371;28;20367;-75
2022/08/14 22:46:58;;;;;;;5.43;5.03;;;;;;;26.53;39.26;98969.06;10375771;28;20842;-75
2022/08/14 22:52:03;;;;;;;5.82;4.95;;;;;;;26.53;39.45;98961.72;10392171;28;20156;-74
2022/08/14 22:57:25;;;;;;;6.18;4.70;;;;;;;26.44;39.78;98955.91;10394250;28;20041;-73
2022/08/14 23:02:39;;;;;;;5.57;5.07;;;;;;;26.43;39.49;98956.16;10393498;28;20124;-72
2022/08/14 23:07:43;;;;;;;5.35;4.82;;;;;;;26.41;39.69;98945.50;10377213;28;20064;-72
2022/08/14 23:13:06;;;;;;;7.40;4.53;;;;;;;26.36;39.90;98956.38;10379279;28;20041;-73
2022/08/14 23:18:08;;;;;;;5.60;5.10;;;;;;;26.17;40.29;98968.75;10395513;28;20146;-73
2022/08/14 23:23:16;;;;;;;6.68;6.07;;;;;;;25.97;41.12;98961.94;10387525;28;20084;-74
2022/08/14 23:28:23;;;;;;;6.45;5.75;;;;;;;25.85;40.83;98953.94;10388377;28;20053;-75
2022/08/14 23:33:45;;;;;;;5.40;4.90;;;;;;;25.86;40.25;98949.31;10394125;28;20049;-73
2022/08/14 23:38:53;;;;;;;5.75;5.28;;;;;;;25.69;40.54;98936.59;10393737;28;20644;-73
2022/08/14 23:43:56;;;;;;;6.00;5.50;;;;;;;25.74;40.95;98935.81;10398731;28;20528;-74
2022/08/14 23:48:59;;;;;;;;;;;;;;;25.77;40.96;98933.38;10403739;28;20052;-74
2022/08/14 23:54:02;;;;;;;6.83;6.00;;;;;;;25.79;40.64;98932.31;10391362;28;19940;-73
2022/08/14 23:59:04;;;;;;;6.57;5.83;;;;;;;25.74;41.55;98928.44;10402903;28;20474;-75
